Aviation Digital Data Service (ADDS)

Output produced by METARs form (1429 UTC 05 December 2016)
found at http://www.aviationweather.gov/adds/metars/
 
KEWR 051403Z 0514/0618 22008KT 6SM BR SCT008 BKN015 OVC020 
     TEMPO 0514/0515 BKN008 
     FM051500 23007KT 6SM BR SCT012 BKN020 BKN030 
     FM051800 28012G17KT P6SM SCT030 BKN050 
     FM052100 30011KT P6SM SCT250 
     FM060200 32010KT P6SM SKC 
     FM060600 34007KT P6SM SKC 
     FM061400 04008KT P6SM SCT250